METARS
Date METAR Location Area
08/02/2016 LG1B 081930Z 09000KT 03/02 Q1026 Arsakeio Athens
08/02/2016 LGY7 082030Z 00000KT 09/06 Q1026 Aegina Attica
08/02/2016 LG0B 082130Z 00000KT 07/04 Q1024 Agia Paraskeui Attica
08/02/2016 LG37 082145Z 00000KT 66/49 Q10249 Agia Paraskeyi Attica
08/02/2016 LG5C 082030Z 02301KT 09/06 Q1026 Alimos Attica
08/02/2016 LGH5 082130Z 06801KT 09/05 Q1025 Ampelokipoi Attica
08/02/2016 LGS5 082030Z 27000KT 07/05 Q1025 Anavissos Attica
08/02/2016 LGO0 082030Z 00000KT 07/04 Q1026 Ano Liosia Attica
08/02/2016 LG9B 082030Z 33803KT 06/04 Q1026 Aspropirgos Attica
08/02/2016 LGB9 082030Z 00000KT 07/05 Q1027 Athens - Gazi Attica
08/02/2016 LGL5 082130Z 15802KT 08/05 Q1030 Ekali Attica
08/02/2016 LGS3 082030Z 18000KT 09/06 Q1026 Faliro Attica
08/02/2016 LGM3 081930Z 11303KT 10/06 Q1026 Hydra Attica
08/02/2016 LGI4 081700Z 00000G31104KT 87/52 Q10258 Hydra Attica
27/01/2016 LGO2 271030Z 31503KT 05/03 Q1033 Imittos Attica
08/02/2016 LGT8 082030Z 00000KT M02/M03 Q1027 Ippokratios Attica
28/01/2016 LG99 281030Z 29301KT 18/09 Q1028 Kantza Attica
08/02/2016 LG13 082030Z 00000KT 05/00 Q1027 Kifissia Attica
08/02/2016 LG3C 081930Z 00001KT 09/05 Q1024 Korydallos Attica
08/02/2016 LGD6 082030Z 00002KT 06/04 Q1024 Lavrio Attica
08/02/2016 LGK0 082030Z 13500KT 08/06 Q1026 Marousi Attica
08/02/2016 LG00 082210Z 00000KT 06/03 Q1023 Marousi (Anavrita) Attica
08/02/2016 LGR0 082030Z 00000KT 09/06 Q1026 Nea Smirni Attica
08/02/2016 LGM8 082030Z 00000KT 09/06 Q1027 Neos Kosmos Attica
28/01/2016 LGA3 280546Z 26001KT 05/03 Q1028 Pallini - Kantza 2 Attica
08/02/2016 LGK3 082030Z 31512KT 02/00 Q1026 Parnitha 1230 EAA Attica
08/02/2016 LGT6 082030Z 33800KT 08/05 Q1027 Patissia Attica
09/02/2016 LG67 082200Z 00000G4320KT 62/41 Q10260 Penteli Attica
08/02/2016 LGX9 082030Z 31503KT 06/05 Q1024 Penteli Attica
08/02/2016 LG6D 081930Z 04501KT 09/06 Q1025 Perama Attica
08/02/2016 LGU0 082030Z 04502KT 08/04 Q1026 Peristeri Attica
08/02/2016 LG9C 081930Z 00000KT +RA 09/06 Q 7 Petroupoli Attica
08/02/2016 LGY6 082030Z 24803KT 05/04 Q1026 Porto Rafti Attica
08/02/2016 LG96 082030Z 00000KT 07/05 Q1026 Psychico Attica
08/02/2016 LGZ0 082030Z 31504KT 05/04 Q1025 Rafina Attica
08/02/2016 LG2B 081930Z 00003KT 09/05 Q1026 SEF Attica
08/02/2016 LGG2 082130Z 29302KT 06/04 Q1024 Spata Attica
08/02/2016 LGS6 082030Z 24802KT 10/07 Q1025 Spetses Attica
08/02/2016 LG3B 081930Z 00000KT 02/01 Q1028 Tatoi Attica
08/02/2016 LGZ2 082030Z 00000KT 06/04 Q1026 Vari Attica
08/02/2016 LGR6 082030Z 22500KT 03/01 Q1027 Vilia Attica
06/02/2016 LG1D 060530Z 27000KT 04/02 Q1028 Vrilissia Attica
08/02/2016 LG74 082100Z 00000KT 80/51 Q10252 Ymittos Attica
09/02/2016 LGG1 082200Z 00000KT 55/37 Q34 Kalivia Thorikou Attica E
08/02/2016 LG45 082030Z 00000KT 05/04 Q1028 Markopoulo Attica E
08/02/2016 LG72 082000Z 00000KT 51/34 Q10240 Keratea Attica SE
08/02/2016 LGW4 082030Z 00003KT 03/00 Q1008 Ag. Ioannis Sfakion Crete
08/02/2016 LGJ9 082030Z 27003KT 09/03 Q1025 Aghios Nikolaos Crete
08/02/2016 LGT4 082130Z 18002KT 06/04 Q1025 Alikianos Crete
08/02/2016 LGB6 082030Z 24803KT 03/M03 Q1024 Anogeia Crete
08/02/2016 LGZ6 082030Z 29300KT 01/00 Q1029 Askyfou Crete
08/02/2016 LG25 082130Z 00000KT 08/05 Q1025 Chania Crete
08/02/2016 LGN3 082030Z 18003KT 07/05 Q1026 Chania Center Crete
08/02/2016 LG61 082030Z 22504KT 09/04 Q1025 Cost - Irakleio Crete
08/02/2016 LG2C 082130Z 00000KT 05/03 Q1020 Elos Crete
08/02/2016 LGL9 082030Z 02303KT 11/06 Q1024 Falasarna Crete
08/02/2016 LG9A 081930Z 22506KT 08/04 Q1024 Finokalia - Lasithi Crete
08/02/2016 LGL1 082130Z 00000KT 06/03 Q1025 Fourfouras Crete
08/02/2016 LGD4 082030Z 13502KT 05/03 Q1026 Fragmapotamon - Rethymno Crete
08/02/2016 LG30 082030Z 33801KT 07/04 Q1026 Heraklion - Knossos Crete
08/02/2016 LG95 082030Z 02306KT 10/04 Q1026 Ierapetra Crete
08/02/2016 LGP0 082030Z 33803KT 11/04 Q1025 Lentas Hrakleion Crete
06/02/2016 LGD7 061400Z 04502KT -RA 04/00 Q1029 Metaxochori - Heraklion Crete
08/02/2016 LGI2 082030Z 06802KT 07/05 Q1025 Mires Crete
08/02/2016 LG36 082030Z 06803KT 10/05 Q1025 Paleochora Crete
08/02/2016 LG8A 082030Z 27000KT 06/04 Q1025 Pirathi Heraklion Crete
08/02/2016 LG58 082030Z 15805KT 09/05 Q1024 Rethymno Crete
02/02/2016 LGT2 020830Z 06804KT 20/09 Q1027 Rethymno - Plakia Crete
08/02/2016 LGY1 082030Z 00000KT 06/03 Q1028 Samaria Crete
08/02/2016 LGB4 082030Z 00000KT 01/M05 Q1028 Samaria Crete
08/02/2016 LG9D 082030Z 00000KT 05/02 Q1027 Sebrona Crete
08/02/2016 LGM2 082030Z 27004KT 10/05 Q1025 Sitia Crete
08/02/2016 LG75 082030Z 06801KT 06/03 Q1027 Spili - Rethymnon Crete
08/02/2016 LG8B 082030Z 20302KT 07/03 Q1026 Stavrakia - Heraclion Crete
08/02/2016 LG50 082030Z 31500KT M01/M04 Q1026 Tzermiado Lasithi Crete
08/02/2016 LG7B 082030Z 09000KT 05/04 Q1025 Vagionia - Heraklion Crete
08/02/2016 LG70 082030Z 29300KT 05/03 Q1025 Vrysses Crete
08/02/2016 LGT5 082030Z 06802KT 10/05 Q1025 Amorgos Cyclades
08/02/2016 LGN6 082030Z 02302KT 08/05 Q1026 Andros Cyclades
04/02/2016 LGS7 040430Z 22511KT 16/13 Q1021 Donoussa Cyclades
08/02/2016 LGI0 082030Z 04501KT 07/04 Q1026 Ios Cyclades
08/02/2016 LGP2 082030Z 06801KT 06/04 Q1029 Ioulida - Kea Cyclades
08/02/2016 LGP5 082030Z 31503KT 10/05 Q1026 Iraklia Cyclades
08/02/2016 LGE3 082130Z 00000KT 08/05 Q1026 Kea Cyclades
08/02/2016 LGX8 082030Z 00002KT 10/05 Q1026 Koufonissia Cyclades
08/02/2016 LGS0 082030Z 00000KT 06/04 Q1027 Milos Cyclades
08/02/2016 LG66 082030Z 04503KT 10/06 Q1025 Mykonos Cyclades
08/02/2016 LGM0 082030Z 00003KT 10/05 Q1026 Naxos Cyclades
08/02/2016 LGV3 082030Z 00000KT 03/01 Q1026 Naxos - Apiranthos Cyclades
08/02/2016 LGT0 082030Z 27004KT 08/04 Q1027 Naxos - Apollonas Cyclades
08/02/2016 LGU1 082030Z 15800KT 04/02 Q1026 Naxos - Damarionas Cyclades
08/02/2016 LGU2 080630Z 06805KT 06/03 Q1025 Naxos - Koronos Cyclades
08/02/2016 LGN7 082030Z 13500KT 02/00 Q1025 Naxos - Kynidaros Cyclades
08/02/2016 LGW1 082030Z 09000KT 06/03 Q1025 Naxos - Melanes Cyclades
08/02/2016 LGO7 082030Z 06803KT 09/05 Q1027 Naxos - Mikri Vigla Cyclades
08/02/2016 LG02 081430Z 02303KT 12/04 Q1025 Paros Cyclades
08/02/2016 LGX5 082030Z 31503KT 08/04 Q1024 Santorini Cyclades
08/02/2016 LGX7 080530Z 11303KT 09/04 Q1025 Schinoussa Cyclades
17/06/2015 LG07 171930Z 00000KT 261/94 Q10040 Tinos Cyclades
08/02/2016 LGB8 081930Z 00001KT 09/05 Q1026 Tinos NOA Cyclades
08/02/2016 LGAB 082130Z 13504KT 07/03 Q1024 Emponas - Rhodes Dodecanese
08/02/2016 LGG6 082030Z 00000KT 07/02 Q1026 Kalymnos Dodecanese
08/02/2016 LGAC 082130Z 00000KT 06/03 Q1024 Kattavia - Rhodes Dodecanese
08/02/2016 LGAA 082130Z 29300KT 11/05 Q1025 Lindos - Rhodes Dodecanese
08/02/2016 LG65 082030Z 18001KT 08/03 Q1026 Patmos Dodecanese
08/02/2016 LGS9 082030Z 22502KT 10/06 Q1026 Rhodes Dodecanese
08/02/2016 LGM5 082030Z 20303KT 12/05 Q1024 Kasos Dodecanisa
08/02/2016 LGX1 082030Z 22503KT 07/03 Q1025 Kos Dodekanissa
08/02/2016 LG6C 082130Z 24800KT 05/02 Q1026 Chios Town East Aegean
08/02/2016 LGT1 082030Z 00000KT 09/04 Q1025 Fournoi East Aegean
08/02/2016 LGI9 082030Z 15803KT 01/01 Q1024 Ikaria East Aegean
08/02/2016 LGI5 082030Z 02301KT 03/02 Q1024 Lemnos East Aegean
07/02/2016 LGI6 071930Z 13504KT 03/00 Q1026 Lesvos East Aegean
08/02/2016 LGJ3 082030Z 29304KT 04/02 Q1027 Lesvos - Thermi East Aegean
20/01/2016 LGZ7 201530Z 33807KT 18/07 Q1018 Mantamados East Aegean
08/02/2016 LGY5 082030Z 11304KT 03/01 Q1027 Molyvos East Aegean
08/02/2016 LGF1 082130Z 15806KT 03/00 Q1025 Samos East Aegean
08/02/2016 LG2D 081930Z 04502KT 03/00 Q1025 Agia Paraskeui Lesvos East Aegen
08/02/2016 LGW7 081930Z 22506KT 08/05 Q1019 Akrotirio Paksimada Evia
08/02/2016 LGO3 082130Z 00001KT 07/05 Q1025 Chalkida Evia
08/02/2016 LGR5 081930Z 29300KT 06/04 Q1026 Kavodoro Evia
09/02/2016 LGY0 090700Z 11300KT 09/05 Q1034 Krieza Evia
08/02/2016 LGX0 082030Z 27000KT 03/02 Q1027 Kymi Evia
08/02/2016 LGT7 081930Z 27000KT 02/00 Q1026 Setta Evia
08/02/2016 LG81 082030Z 04502KT 03/02 Q1025 Steni Evia
08/02/2016 LGC4 081930Z 04502KT 06/04 Q1026 Styra Evia
08/02/2016 LGD3 082030Z 00000KT 06/04 Q1026 Zarakes Evia
08/02/2016 LGP6 081930Z 11300KT 03/02 Q1028 Agia Kyriaki Ioanninon Hepirus
08/02/2016 LGO1 082030Z 00000KT 03/01 Q1026 Aridaia Hepirus
08/02/2016 LGD2 082130Z 00000KT 07/04 Q1025 Arta - Kompoti Hepirus
08/02/2016 LGE4 081930Z 00000KT M01/M02 Q1027 Aspraggeloi Hepirus
08/02/2016 LGI3 082030Z 06801KT 03/02 Q1026 Derviziana Hepirus
08/02/2016 LGP4 082030Z 11300KT 04/02 Q1026 Dodoni Hepirus
02/02/2016 LGL8 021430Z 02304KT 24/07 Q1015 Grammos Hepirus
08/02/2016 LG49 082030Z 00000KT 01/00 Q1025 Ioannina Anatoli Hepirus
08/02/2016 LGK1 082030Z 00000KT 07/05 Q1025 Kanali, Preveza Hepirus
08/02/2016 LGE0 082030Z 09001KT 04/01 Q1027 Katarraktis - Arta Hepirus
08/02/2016 LGO5 082030Z 27003KT 01/M01 Q1026 Kerasovo Konitsa Hepirus
08/02/2016 LG3A 082030Z 02301KT 06/02 Q1026 Konitsa Hepirus
08/02/2016 LGO8 082130Z 31500KT 02/00 Q1025 Metsovo Hepirus
08/02/2016 LGK6 081830Z 31500KT 04/00 Q1027 Papigo Hepirus
08/02/2016 LGF6 081730Z 27003KT 06/03 Q1025 Paramythia Hepirus
08/02/2016 LGK9 082030Z 06802KT 11/08 Q1027 Parga Hepirus
08/02/2016 LGK7 081630Z 06801KT 06/03 Q1025 Pesta Hepirus
03/02/2016 LGY9 030530Z 27003KT 07/01 Q1014 Plikati Ioanninon Hepirus
08/02/2016 LGP1 082030Z 09001KT 03/01 Q1027 Pramanta Hepirus
08/02/2016 LGK2 082030Z 00000KT 02/00 Q1025 Theodoriana, Arta Hepirus
08/02/2016 LGD0 082030Z 06801KT 03/01 Q1025 Tristeno - Ioannina Hepirus
08/02/2016 LGM4 082030Z 31500KT 01/M01 Q1027 Tyria Hepirus
08/02/2016 LGR8 082030Z 18000KT 04/02 Q1027 Vourgareli Artas Hepirus
08/02/2016 LGN9 081930Z 13500KT M01/M02 Q1028 Vovoussa Hepirus
08/02/2016 LGN0 082030Z 20300KT 06/03 Q1025 Zitsa Hepirus
08/02/2016 LGJ2 082030Z 00000KT 09/07 Q1025 Corfu - Gouvia Ionio
08/02/2016 LGB0 082030Z 00000KT 07/05 Q1026 Ithaki Ionio
08/02/2016 LGI7 082030Z 18003KT 08/06 Q1027 Lefkada Ionio
08/02/2016 LGN1 081830Z 18000KT 11/08 Q1024 Paxoi Ionio
08/02/2016 LGN4 081930Z 00000KT 03/02 Q1025 Zakynthos Ionio
08/02/2016 LGG9 082030Z 27001KT 01/M01 Q1023 Amynteo Macedonia
08/02/2016 LG33 082130Z 00000KT 05/03 Q1024 Chalkidiki - Polygyros Macedonia
08/02/2016 LGJ1 082030Z 00000KT 06/04 Q1025 Chalkidiki - Stratoni Macedonia
08/02/2016 LGZ5 082030Z 20300KT 00/M01 Q1026 Didymoteicho Macedonia
08/02/2016 LG55 082130Z 27003KT 04/03 Q1024 Dion Macedonia
08/02/2016 LGU8 082030Z 18001KT 03/02 Q1025 Doxato - Drama Macedonia
08/02/2016 LGH3 082150Z 07700KT 01/00 Q1025 Drama Macedonia
08/02/2016 LGH6 082130Z 00000KT 01/00 Q1024 Drama 2 Macedonia
08/02/2016 LGY3 082030Z 20303KT 04/03 Q1025 Eleutheroupoli Macedonia
18/01/2016 LGJ6 181050Z 16812KT 08/02 Q1011 Falakro Macedonia
08/02/2016 LG63 082130Z 00001KT 00/M02 Q1027 Florina Macedonia
08/02/2016 LGZ8 082030Z 00000KT 01/00 Q1025 Fotolivos Macedonia
08/02/2016 LG73 082030Z 31501KT 05/02 Q1025 Giannitsa Macedonia
08/02/2016 LGF2 082030Z 00000KT M02/M04 Q1026 Grevena Macedonia
08/02/2016 LGO4 082030Z 11303KT 03/01 Q1025 Hmathia - Rizomata Macedonia
08/02/2016 LG7D 082030Z 00000KT 08/04 Q1023 Iera Moni Megistis Lauras Macedonia
08/02/2016 LG93 082030Z 31520KT 00/M03 Q1024 Kaimaktsalan Macedonia
08/02/2016 LG4D 082030Z 04501KT 03/02 Q1024 Kalampaki Drama Macedonia
08/02/2016 LGO9 082030Z 00000KT 06/05 Q1024 Kassandreia (Xalkidiki) Macedonia
08/02/2016 LGC0 082030Z 20301KT 02/M02 Q1025 Kastoria Macedonia
08/02/2016 LG27 082150Z 21700KT 06/03 Q1026 Kavala - Dexameni Macedonia
08/02/2016 LG5D 082030Z 00000KT 00/M02 Q1026 Kerasia Edessas Macedonia
08/02/2016 LG42 082030Z 11303KT 04/02 Q1024 Kilkis Macedonia
08/02/2016 LGW8 082030Z 09001KT 03/01 Q1026 Kimisi Macedonia
08/02/2016 LGJ4 082030Z 24800KT 00/M02 Q1026 Kozani - Ardassa Macedonia
08/02/2016 LGP3 082030Z 31502KT 00/M04 Q1023 Lailias - Serres Macedonia
08/02/2016 LGZ9 082030Z 13501KT 01/M01 Q1025 Mavropigi Macedonia
08/02/2016 LG3D 082030Z 04502KT 02/01 Q1026 Mikrokampos Drama Macedonia
08/02/2016 LG1E 081930Z 02303KT 06/03 Q1023 Moni Simonos Petras Macedonia
08/02/2016 LG40 082030Z 22500KT 05/01 Q1025 Naousa Macedonia
08/02/2016 LG4B 081930Z 00000KT 03/01 Q1025 Nea Peramos Macedonia
08/02/2016 LGZ4 082130Z 09001KT 10/05 Q1024 Neos Marmaras Macedonia
08/02/2016 LG48 082030Z 00000KT 00/M02 Q1025 Nevrokopi Drama Macedonia
08/02/2016 LGS4 082030Z 15802KT 04/M01 Q1024 Notio Pedio - Eordea Macedonia
08/02/2016 LGW0 082030Z 00000KT 00/M02 Q1027 Paranesti Macedonia
08/02/2016 LG26 082030Z 20302KT M01/M03 Q1023 Ptolemaida Macedonia
08/02/2016 LG87 082030Z 18003KT 01/M03 Q1024 Seli Ski Center Macedonia
08/02/2016 LGW6 082030Z 00000KT 02/01 Q1027 Serres Macedonia
08/02/2016 LGD9 082030Z 00000KT 05/03 Q1025 Serres - Kerkini Macedonia
09/02/2016 LG14 082200Z 00000KT 39/21 Q10243 Serres - Proti Macedonia
08/02/2016 LG5B 081930Z 18003KT 05/03 Q1025 Thasos Macedonia
08/02/2016 LGR9 082030Z 09001KT 08/04 Q1025 Thessaloniki Macedonia
07/02/2016 LGF0 071530Z 20301KT 03/M03 Q1025 Variko Macedonia
08/02/2016 LGC2 082030Z 13500KT 08/05 Q1023 Vatopedi - Athos Macedonia
08/02/2016 LGE9 082030Z 00000KT 01/M01 Q1026 Vegoritida Macedonia
08/02/2016 LGE5 082030Z 00000KT 04/02 Q1024 Veroia Macedonia
08/02/2016 LG98 081930Z 00000KT M03/M05 Q1026 Vlasti - Kozani Macedonia
08/02/2016 LGF5 082201Z 26900KT 01/01 Q1027 Vounochori - Kavala Macedonia
08/02/2016 LG2E 082030Z 22502KT 09/06 Q1024 Achaia Peloponissos
08/02/2016 LGU5 081930Z 31505KT 07/05 Q1025 Agioi Theodoroi Peloponissos
15/01/2016 LGU7 152230Z 22506G18KT -RA 10/08 Q1013 Alagonia - Messinia Peloponissos
08/02/2016 LG52 082030Z 06800KT 08/05 Q1025 Amaliada Peloponissos
08/02/2016 LG77 082030Z 00002KT 04/03 Q1026 Andritsaina Peloponissos
08/02/2016 LGU6 082030Z 18000KT 11/07 Q1026 Arfara - Messinia Peloponissos
08/02/2016 LGT3 082030Z 31500KT 08/05 Q1026 Argos Peloponissos
08/02/2016 LGV0 081630Z 18003KT 09/05 Q1024 Derveni Peloponissos
28/01/2016 LGK4 280630Z 15801KT -RA 03/02 Q1021 Elati Peloponissos
08/02/2016 LGC3 082030Z 00000KT 04/03 Q1025 Foloi - Ilia Peloponissos
08/02/2016 LGX6 081630Z 09003KT 10/07 Q1026 Geraki Peloponissos
08/02/2016 LGB7 082030Z 00000KT 06/05 Q1025 Ilia - Vartholomio Peloponissos
08/02/2016 LG85 082030Z 13502KT 08/06 Q1024 Isthmos Peloponissos
08/02/2016 LG6A 082030Z 33800KT 13/08 Q1026 Kalamata Peloponissos
08/02/2016 LGZ3 081030Z 00000KT 13/09 Q1021 Kardamyli Peloponissos
08/02/2016 LG0C 082030Z 00000KT 09/03 Q1026 Kastritsi Peloponissos
08/02/2016 LGJ5 082030Z 33802KT 10/07 Q1025 Katakolo Peloponissos
08/02/2016 LGP7 082130Z 00000KT 03/02 Q1027 7 Kato Vlassia Peloponissos
27/01/2016 LGB2 272000Z 20301KT 27/23 Q1011 Katoachaia Peloponissos
08/02/2016 LGB5 082030Z 04503KT 10/07 Q1025 Kavomalias Peloponissos
08/02/2016 LG8D 081930Z 18003KT 08/04 Q1024 Kiato Peloponissos
08/02/2016 LGM7 082030Z 00000KT 10/06 Q1027 Kranidi Peloponissos
08/02/2016 LG0D 082030Z 24805KT 04/02 Q1025 Kryoneri Peloponissos
06/02/2016 LGV1 061130Z 31503KT 13/03 Q1027 Kyparissia Peloponissos
08/02/2016 LGW9 082030Z 00000KT 05/03 Q1026 Lagadia Peloponissos
08/02/2016 LG0A 082030Z 22500KT 04/01 Q1028 Lampia - Ilia Peloponissos
08/02/2016 LG92 082030Z 13502KT 06/03 Q1024 Lappa-Larissos-Achaia Peloponissos
08/02/2016 LG4C 082030Z 24802KT 04/01 Q1027 Levidi Peloponissos
07/02/2016 LG91 070630Z 00000KT 21/15 Q1012 Lousika-Olenias-Achaia Peloponissos
08/02/2016 LGV4 082030Z 00000KT 04/M01 Q1026 Lykochia Peloponissos
08/02/2016 LGG5 082030Z 31500KT 07/05 Q1026 Megalopoli Peloponissos
08/02/2016 LGV2 082030Z 00000KT 06/04 Q1027 Messinia - Kopanaki Peloponissos
08/02/2016 LGF8 082030Z 31502KT 10/07 Q1026 Molaoi Peloponissos
08/02/2016 LG56 082030Z 18003KT 11/07 Q1025 Monemvasia Peloponissos
01/02/2016 LGE1 011330Z 04507KT 17/10 Q1020 Nemea Peloponissos
08/02/2016 LGD5 082030Z 00000KT 04/00 Q1026 Oleni - Ilia Peloponissos
08/02/2016 LGB3 082030Z 00000KT 06/04 Q1025 Olympia Peloponissos
08/02/2016 LGV6 082030Z 22504KT M01/M02 Q1026 Panachaiko Oros Peloponissos
08/02/2016 LGZ1 082030Z 15803KT 09/04 Q1024 Patra Peloponissos
02/02/2016 LG79 020905Z 00000G31104KT 150/118 Q10295 Patra - Agia Peloponissos
09/02/2016 LG71 082200Z 00000KT 93/43 Q10257 Patra - Drosia Peloponissos
08/02/2016 LG84 082030Z 27003KT 13/07 Q1026 Patra - Port Peloponissos
08/02/2016 LGG7 081930Z 00000KT 06/04 Q1026 Pinia Peloponissos
08/02/2016 LG59 082130Z 11302KT 09/06 Q1024 Pirgos Peloponissos
08/02/2016 LGH8 082030Z 20303KT 10/05 Q1026 Rio Peloponissos
08/02/2016 LGT9 082030Z 11303KT 11/03 Q1024 Romanos - Patra Peloponissos
08/02/2016 LGA0 082130Z 00000KT 07/05 Q1024 Sagaiika Peloponissos
08/02/2016 LGF7 082030Z 24801KT 04/01 Q1029 Sparti Peloponissos
08/02/2016 LGS2 082030Z 00000KT 04/02 Q1027 Stemnitsa Peloponissos
08/02/2016 LGR1 081930Z 22503KT 03/01 Q1025 Trikala Korinthias Peloponissos
08/02/2016 LG83 082130Z 00000KT 01/00 Q1027 Tripoli Peloponissos
08/02/2016 LGU9 082030Z 00000KT 03/02 Q1027 Vytina Peloponissos
08/02/2016 LG86 082030Z 06800KT 08/06 Q1025 Zaxaro Peloponissos
08/02/2016 LGN2 082030Z 00000KT 08/05 Q1027 Alonissos Sporades
08/02/2016 LGI1 082030Z 33802KT 08/05 Q1026 Skyros Sporades
08/02/2016 LGH9 082030Z 00000KT 08/05 Q1028 Agrinio Sterea Ellada
08/02/2016 LGC7 082030Z 33800KT 08/07 Q1026 Aitoliko Sterea Ellada
08/02/2016 LG29 082130Z 00000KT 02/00 Q1025 Amfiklia Sterea Ellada
08/02/2016 LGH1 080750Z 00000KT 46/07 Q10272 Amfiklia 2 Sterea Ellada
08/02/2016 LGG8 082030Z 00000KT 08/05 Q1028 Antikira Sterea Ellada
08/02/2016 LG97 082215Z 00000KT 04/02 Q1025 Arachova Sterea Ellada
08/02/2016 LGC5 082030Z 22501KT 03/01 Q1027 Arahova Sterea Ellada
05/02/2016 LGH0 050530Z 00010KT 09/06 Q1008 Avlida Sterea Ellada
08/02/2016 LGR2 082030Z 11302KT 05/02 Q1026 Dam of Mornos Sterea Ellada
22/01/2016 LGR3 221330Z 27000KT 07/01 Q1027 Diakopi of Lidoriki Sterea Ellada
08/02/2016 LGW5 082030Z 20304KT 06/02 Q1025 Domokos Sterea Ellada
14/01/2016 LG21 141323Z 24804KT 29/15 Q1014 Evia - Chalkida Sterea Ellada
08/02/2016 LGY4 081830Z 02304KT 09/05 Q1026 Galaxidi Sterea Ellada
08/02/2016 LGJ7 082030Z 24803KT 07/04 Q1027 Kaparelli Sterea Ellada
08/02/2016 LGC9 082030Z 31500KT M03/M04 Q1029 Karpenisi Sterea Ellada
08/02/2016 LGP9 082030Z 22500KT 07/05 Q1024 Kleidi Viotias Sterea Ellada
08/02/2016 LGR4 082030Z 24800KT 03/01 Q1027 Koniakos of Lidoriki Sterea Ellada
08/02/2016 LGV9 082030Z 00000KT 07/03 Q1025 Lamia Sterea Ellada
08/02/2016 LGI8 082030Z 27000KT 02/01 Q1026 Livadeia Sterea Ellada
08/02/2016 LGE7 082030Z 00000KT 02/01 Q1024 Makrakomi Sterea Ellada
08/02/2016 LGA6 082030Z 27003KT 00/M01 Q1030 Mavrolithari - Vardousia Sterea Ellada
08/02/2016 LGK8 082130Z 22500KT 01/00 Q1025 Myriki Sterea Ellada
08/02/2016 LGG4 082030Z 09001KT 02/M01 Q1026 Orini Nafpaktia Sterea Ellada
20/01/2016 LGA4 200900Z 22502G16KT 01/01 Q1009 Parnassos Sterea Ellada
08/02/2016 LGL0 081430Z 13501KT 08/04 Q1025 Polydroso Sterea Ellada
07/02/2016 LGR7 071230Z 04508KT 11/09 Q1025 Prasino - Viotia Sterea Ellada
08/02/2016 LG69 082130Z 00000KT 02/01 Q1026 Tanagra Sterea Ellada
08/02/2016 LGO6 082030Z 00000KT 05/04 Q1026 Theologos Sterea Ellada
08/02/2016 LG94 082130Z 00000KT 33/22 Q10252 Hortiatis Thes/niki
08/02/2016 LG15 082213Z 07400KT 00/M20 Q929 Kamara Thes/niki Thes/niki
08/02/2016 LGA5 082030Z 00000KT 01/M01 Q1025 Lagadas Thes/niki
08/02/2016 LG7C 081630Z 09003KT 08/05 Q1024 Nea Michaniona Thes/niki
08/02/2016 LG8C 081930Z 00000KT 04/03 Q1025 Sindos Thes/niki
24/01/2016 LG11 240730Z 12901KT 10/06 Q1006 West Thes/niki Thes/niki
08/02/2016 LGV5 081730Z 27000KT 07/04 Q1025 Tsamantas Thesprotia
26/01/2016 LGL4 261730Z 13501KT 04/01 Q1031 Gardiki Thessalia
08/02/2016 LGW3 082030Z 13500KT 04/01 Q1023 Kalabaka Thessalia
03/02/2016 LG2A 031130Z 13503KT 22/10 Q1017 Karditsa Thessalia
09/02/2016 LGU3 082200Z 00000KT 43/18 Q10238 Larissa Thessalia
19/12/2015 LG41 192110Z 00000G1728KT 53/20 Q10283 Larissa Thessalia
08/02/2016 LGL6 082030Z 00000KT 05/02 Q1025 Larissa Thessalia
08/02/2016 LGS8 082030Z 31500KT 05/02 Q1026 Larissa - Agia Thessalia
08/02/2016 LGL7 082030Z 20310KT 04/01 Q1022 Limni Plastira Thessalia
08/02/2016 LG6B 082130Z 22500KT 08/05 Q1023 Moni Paou Thessalia
26/01/2016 LGU4 260700Z 29304KT 04/M07 Q1013 Olympos Thessalia
09/02/2016 LG7A 082200Z 292864G2592KT 44/21 Q10254 Pedio Areos Volou Thessalia
08/02/2016 LGE2 082030Z 22503KT 00/M02 Q1025 Pertouli Thessalia
06/02/2016 LGY2 061400Z 31509KT 10/02 Q1027 Portaria - Pelio Thessalia
29/01/2016 LG80 291630Z 20302KT 11/09 Q1029 Skopelos - Sporades Thessalia
08/02/2016 LG24 082130Z 00000KT 07/05 Q1025 Sporades - Skiathos Thessalia
08/02/2016 LG57 081930Z 00000KT 06/02 Q1026 Trikala Thessalia
08/02/2016 LG51 082030Z 04501KT 06/04 Q1024 Volos Thessalia
08/02/2016 LGG3 082030Z 24802KT 05/03 Q1027 Zagora EAA Thessalia
08/02/2016 LGD8 081930Z 33802KT 01/M01 Q1025 Alexandroupolis Thraki
08/02/2016 LGM9 082030Z 00002KT 04/03 Q1024 Imeros Thraki
10/01/2016 LG35 102238Z 10600KT 06/01 Q1026 Komotini Thraki
08/02/2016 LGL2 082030Z 22503KT 02/M02 Q1026 Metaxades - Evros Thraki
08/02/2016 LG31 082030Z 00000KT M01/M02 Q1025 Orestiada Thraki
08/02/2016 LGC1 081930Z 06804KT 05/03 Q1026 Samothraki Thraki
07/02/2016 LGC6 071330Z 18003KT 08/02 Q1027 Xanthi Thraki
www.meteorologia.gr